FCO weather

Leonardo da Vinci–Fiumicino Airport
Rome, Lazio, Italy

Public forecast

Using degrees Celsius for public forecast. Weather courtesy of forecast.io.

METAR (pilot weather report)

Retrieved 2018/12/15 13:20 UTC (0 seconds ago):

LIRF 151320Z 35014KT CAVOK 10/M01 Q1014 NOSIG

TAF (pilot weather forecast)

Retrieved 2018/12/15 12:25 UTC (42 minutes ago):

TAF LIRF 151100Z 1512/1618 01016KT CAVOK TEMPO 1513/1518 01016G26KT BECMG 1520/1523 02008KT